createdAt,value
2023-02-06T00:01:30.402Z,-0.53
2023-02-06T00:03:58.126Z,-0.50
2023-02-06T00:06:25.681Z,-0.48
2023-02-06T00:08:53.452Z,-0.45
2023-02-06T00:11:22.149Z,-0.41
2023-02-06T00:13:50.488Z,-0.46
2023-02-06T00:16:22.818Z,-0.33
2023-02-06T00:18:51.389Z,-0.37
2023-02-06T00:21:22.130Z,-0.38
2023-02-06T00:23:50.184Z,-0.39
2023-02-06T00:26:18.597Z,-0.40
2023-02-06T00:28:47.436Z,-0.40
2023-02-06T00:31:15.883Z,-0.40
2023-02-06T00:33:43.832Z,-0.38
2023-02-06T00:36:11.345Z,-0.40
2023-02-06T00:38:38.981Z,-0.41
2023-02-06T00:41:08.242Z,-0.39
2023-02-06T00:43:35.931Z,-0.36
2023-02-06T00:46:03.912Z,-0.36
2023-02-06T00:48:31.675Z,-0.34
2023-02-06T00:50:59.238Z,-0.32
2023-02-06T00:53:26.912Z,-0.35
2023-02-06T00:55:54.436Z,-0.33
2023-02-06T00:58:22.846Z,-0.31
2023-02-06T01:00:50.514Z,-0.30
2023-02-06T01:03:18.133Z,-0.30
2023-02-06T01:05:45.833Z,-0.31
2023-02-06T01:08:13.423Z,-0.26
2023-02-06T01:10:42.862Z,-0.23
2023-02-06T01:13:11.461Z,-0.21
2023-02-06T01:15:41.768Z,-0.22
2023-02-06T01:18:09.366Z,-0.19
2023-02-06T01:20:37.229Z,-0.20
2023-02-06T01:23:04.839Z,-0.20
2023-02-06T01:25:32.483Z,-0.19
2023-02-06T01:28:00.152Z,-0.18
2023-02-06T01:30:28.004Z,-0.21
2023-02-06T01:32:57.228Z,-0.19
2023-02-06T01:35:24.938Z,-0.19
2023-02-06T01:37:52.434Z,-0.29
2023-02-06T01:40:20.033Z,-0.21
2023-02-06T01:42:49.993Z,-0.25
2023-02-06T01:45:26.843Z,-0.11
2023-02-06T01:48:06.380Z,-0.09
2023-02-06T01:50:36.440Z,-0.16
2023-02-06T01:53:06.832Z,-0.16
2023-02-06T01:55:38.737Z,-0.19
2023-02-06T01:58:08.082Z,-0.16
2023-02-06T02:00:36.114Z,-0.19
2023-02-06T02:03:04.959Z,-0.21
2023-02-06T02:05:33.797Z,-0.25
2023-02-06T02:08:08.729Z,-0.27
2023-02-06T02:10:36.658Z,-0.36
2023-02-06T02:13:04.195Z,-0.47
2023-02-06T02:15:48.562Z,-0.35
2023-02-06T02:18:30.632Z,-0.43
2023-02-06T02:21:00.926Z,-0.50
2023-02-06T02:23:46.083Z,-0.42
2023-02-06T02:26:37.966Z,-0.42
2023-02-06T02:29:17.411Z,-0.44
2023-02-06T02:32:00.224Z,-0.38
2023-02-06T02:34:55.632Z,-0.38
2023-02-06T02:37:35.193Z,-0.42
2023-02-06T02:40:21.925Z,-0.44
2023-02-06T02:43:19.689Z,-0.41
2023-02-06T02:46:21.095Z,-0.41
2023-02-06T02:48:55.122Z,-0.47
2023-02-06T02:51:23.466Z,-0.53
2023-02-06T02:53:51.137Z,-0.55
2023-02-06T02:56:22.215Z,-0.50
2023-02-06T02:59:04.184Z,-0.51
2023-02-06T03:01:37.435Z,-0.54
2023-02-06T03:04:16.655Z,-0.53
2023-02-06T03:06:59.949Z,-0.50
2023-02-06T03:09:31.223Z,-0.53
2023-02-06T03:12:20.429Z,-0.42
2023-02-06T03:14:58.521Z,-0.47
2023-02-06T03:17:38.390Z,-0.44
2023-02-06T03:20:09.210Z,-0.48
2023-02-06T03:22:37.663Z,-0.55
2023-02-06T03:25:12.647Z,-0.46
2023-02-06T03:27:43.738Z,-0.47
2023-02-06T03:30:14.553Z,-0.46
2023-02-06T03:32:46.597Z,-0.43
2023-02-06T03:35:26.271Z,-0.39
2023-02-06T03:37:54.360Z,-0.43
2023-02-06T03:40:22.246Z,-0.49
2023-02-06T03:42:53.920Z,-0.44
2023-02-06T03:45:36.176Z,-0.44
2023-02-06T03:48:09.555Z,-0.44
2023-02-06T03:50:40.537Z,-0.43
2023-02-06T03:53:10.059Z,-0.45
2023-02-06T03:55:40.116Z,-0.41
2023-02-06T03:58:12.441Z,-0.41
2023-02-06T04:00:43.399Z,-0.43
2023-02-06T04:03:13.319Z,-0.46
2023-02-06T04:05:41.419Z,-0.48
2023-02-06T04:08:09.365Z,-0.50
2023-02-06T04:10:36.881Z,-0.52
2023-02-06T04:13:04.426Z,-0.52
2023-02-06T04:15:32.040Z,-0.54
2023-02-06T04:18:01.531Z,-0.54
2023-02-06T04:20:30.242Z,-0.50
2023-02-06T04:22:59.181Z,-0.52
2023-02-06T04:25:26.872Z,-0.50
2023-02-06T04:27:54.590Z,-0.52
2023-02-06T04:30:22.283Z,-0.52
2023-02-06T04:32:49.817Z,-0.53
2023-02-06T04:35:17.416Z,-0.50
2023-02-06T04:37:44.881Z,-0.49
2023-02-06T04:40:12.944Z,-0.49
2023-02-06T04:42:40.438Z,-0.48
2023-02-06T04:45:08.471Z,-0.50
2023-02-06T04:47:36.074Z,-0.44
2023-02-06T04:50:04.698Z,-0.45
2023-02-06T04:52:32.629Z,-0.44
2023-02-06T04:55:00.164Z,-0.42
2023-02-06T04:57:27.780Z,-0.39
2023-02-06T04:59:55.306Z,-0.40
2023-02-06T05:02:22.902Z,-0.42
2023-02-06T05:04:50.493Z,-0.36
2023-02-06T05:07:18.259Z,-0.32
2023-02-06T05:09:46.740Z,-0.31
2023-02-06T05:12:14.416Z,-0.31
2023-02-06T05:14:42.039Z,-0.28
2023-02-06T05:17:09.527Z,-0.22
2023-02-06T05:19:37.052Z,-0.19
2023-02-06T05:22:04.793Z,-0.17
2023-02-06T05:24:32.429Z,-0.16
2023-02-06T05:27:00.007Z,-0.13
2023-02-06T05:29:27.781Z,-0.12
2023-02-06T05:31:55.340Z,-0.06
2023-02-06T05:34:22.890Z,0.01
2023-02-06T05:36:50.405Z,0.03
2023-02-06T05:39:17.930Z,0.12
2023-02-06T05:41:45.546Z,0.11
2023-02-06T05:44:13.056Z,0.24
2023-02-06T05:46:40.709Z,0.26
2023-02-06T05:49:08.342Z,0.32
2023-02-06T05:51:36.254Z,0.32
2023-02-06T05:54:03.954Z,0.48
2023-02-06T05:56:31.523Z,0.51
2023-02-06T05:58:59.348Z,0.60
2023-02-06T06:01:28.843Z,0.66
2023-02-06T06:03:56.807Z,0.77
2023-02-06T06:06:24.372Z,0.87
2023-02-06T06:08:52.070Z,0.96
2023-02-06T06:11:19.942Z,1.00
2023-02-06T06:13:47.446Z,1.25
2023-02-06T06:16:15.157Z,1.41
2023-02-06T06:18:42.811Z,1.57
2023-02-06T06:21:10.463Z,1.72
2023-02-06T06:23:41.109Z,1.91
2023-02-06T06:26:08.780Z,2.04
2023-02-06T06:28:38.847Z,2.17
2023-02-06T06:31:13.083Z,2.33
2023-02-06T06:33:41.575Z,2.47
2023-02-06T06:36:12.896Z,2.65
2023-02-06T06:38:41.903Z,2.80
2023-02-06T06:41:09.595Z,2.98
2023-02-06T06:43:37.560Z,3.16
2023-02-06T06:46:05.552Z,3.39
2023-02-06T06:48:33.263Z,3.64
2023-02-06T06:51:00.756Z,3.90
2023-02-06T06:53:28.850Z,4.19
2023-02-06T06:55:56.451Z,4.44
2023-02-06T06:58:24.081Z,4.72
2023-02-06T07:00:53.913Z,4.90
2023-02-06T07:03:21.612Z,5.18
2023-02-06T07:05:49.972Z,5.46
2023-02-06T07:08:18.312Z,5.70
2023-02-06T07:10:45.960Z,5.90
2023-02-06T07:13:13.527Z,6.00
2023-02-06T07:15:47.171Z,5.99
2023-02-06T07:18:14.713Z,6.01
2023-02-06T07:20:42.354Z,6.03
2023-02-06T07:23:09.890Z,6.10
2023-02-06T07:25:37.634Z,6.28
2023-02-06T07:28:09.307Z,6.43
2023-02-06T07:30:36.875Z,6.67
2023-02-06T07:33:11.260Z,6.80
2023-02-06T07:35:43.304Z,6.94
2023-02-06T07:39:01.211Z,6.88
2023-02-06T07:41:54.053Z,6.96
2023-02-06T07:45:09.422Z,7.23
2023-02-06T07:47:34.880Z,7.49
2023-02-06T07:50:04.567Z,7.45
2023-02-06T07:52:53.081Z,7.51
2023-02-06T07:55:20.559Z,7.59
2023-02-06T08:02:05.549Z,7.49
2023-02-06T08:05:54.533Z,7.70
2023-02-06T08:08:18.377Z,7.64
2023-02-06T08:10:49.918Z,7.64
2023-02-06T08:13:17.837Z,7.52
2023-02-06T08:15:46.650Z,7.47
2023-02-06T08:18:17.723Z,7.32
2023-02-06T08:20:47.534Z,7.20
2023-02-06T08:23:20.949Z,7.09
2023-02-06T08:28:31.869Z,6.85
2023-02-06T08:30:59.521Z,6.71
2023-02-06T08:33:27.162Z,6.55
2023-02-06T08:35:54.819Z,6.43
2023-02-06T08:38:22.449Z,6.29
2023-02-06T08:40:50.024Z,6.16
2023-02-06T08:43:17.611Z,6.03
2023-02-06T08:45:49.911Z,6.00
2023-02-06T08:48:17.833Z,5.78
2023-02-06T08:50:47.996Z,5.63
2023-02-06T08:53:15.593Z,5.56
2023-02-06T08:55:43.254Z,5.45
2023-02-06T08:58:10.938Z,5.35
2023-02-06T09:00:38.865Z,5.27
2023-02-06T09:03:06.410Z,5.17
2023-02-06T09:05:34.725Z,5.08
2023-02-06T09:08:02.489Z,4.94
2023-02-06T09:10:30.017Z,4.94
2023-02-06T09:12:58.028Z,4.84
2023-02-06T09:15:25.809Z,4.76
2023-02-06T09:17:53.426Z,4.72
2023-02-06T09:20:21.462Z,4.67
2023-02-06T09:22:49.184Z,4.61
2023-02-06T09:25:16.767Z,4.55
2023-02-06T09:27:47.014Z,4.55
2023-02-06T09:30:15.519Z,4.53
2023-02-06T09:32:43.670Z,4.46
2023-02-06T09:35:11.208Z,4.38
2023-02-06T09:37:38.936Z,4.34
2023-02-06T09:40:07.127Z,4.29
2023-02-06T09:42:38.282Z,4.31
2023-02-06T09:45:20.123Z,4.27
2023-02-06T09:47:55.609Z,4.17
2023-02-06T09:50:44.985Z,4.13
2023-02-06T09:53:31.501Z,4.12
2023-02-06T09:56:13.144Z,3.96
2023-02-06T09:58:59.083Z,3.83
2023-02-06T10:01:32.323Z,3.84
2023-02-06T10:04:34.804Z,3.88
2023-02-06T10:07:31.553Z,3.82
2023-02-06T10:10:11.634Z,3.66
2023-02-06T10:12:56.208Z,3.64
2023-02-06T10:15:36.489Z,3.51
2023-02-06T10:18:15.368Z,3.50
2023-02-06T10:20:54.154Z,3.47
2023-02-06T10:23:26.511Z,3.34
2023-02-06T10:26:18.674Z,3.43
2023-02-06T10:28:56.409Z,3.36
2023-02-06T10:31:26.851Z,3.23
2023-02-06T10:34:06.683Z,3.25
2023-02-06T10:37:11.732Z,3.26
2023-02-06T10:40:08.352Z,3.22
2023-02-06T10:42:57.638Z,3.18
2023-02-06T10:46:03.656Z,3.19
2023-02-06T10:48:39.749Z,3.07
2023-02-06T10:51:20.290Z,3.04
2023-02-06T10:53:52.316Z,2.93
2023-02-06T10:56:26.952Z,2.94
2023-02-06T10:59:40.251Z,3.02
2023-02-06T11:02:12.163Z,2.89
2023-02-06T11:04:42.922Z,2.82
2023-02-06T11:07:28.908Z,2.81
2023-02-06T11:09:57.009Z,2.65
2023-02-06T11:12:27.296Z,2.69
2023-02-06T11:14:57.907Z,2.63
2023-02-06T11:17:28.689Z,2.56
2023-02-06T11:20:03.438Z,2.60
2023-02-06T11:22:38.879Z,2.48
2023-02-06T11:25:36.903Z,2.59
2023-02-06T11:28:14.217Z,2.53
2023-02-06T11:30:53.754Z,2.40
2023-02-06T11:33:49.355Z,2.44
2023-02-06T11:36:38.889Z,2.44
2023-02-06T11:39:21.567Z,2.29
2023-02-06T11:46:17.632Z,2.13
2023-02-06T11:48:57.297Z,2.17
2023-02-06T11:51:26.640Z,1.99
2023-02-06T11:54:00.361Z,1.92
2023-02-06T11:56:29.438Z,1.79
2023-02-06T11:59:15.625Z,1.91
2023-02-06T12:01:49.331Z,1.74
2023-02-06T12:04:39.475Z,1.73
2023-02-06T12:07:25.462Z,1.75
2023-02-06T12:09:52.964Z,1.55
2023-02-06T12:12:31.410Z,1.57
2023-02-06T12:15:29.524Z,1.52
2023-02-06T12:18:01.154Z,1.44
2023-02-06T12:20:35.362Z,1.35
2023-02-06T12:23:25.104Z,1.29
2023-02-06T12:25:58.224Z,1.21
2023-02-06T12:28:36.620Z,1.16
2023-02-06T12:31:23.652Z,1.18
2023-02-06T12:33:55.349Z,1.16
2023-02-06T12:36:28.237Z,1.13
2023-02-06T12:39:04.783Z,1.17
2023-02-06T12:41:56.934Z,1.12
2023-02-06T12:44:53.558Z,1.11
2023-02-06T12:47:39.288Z,0.99
2023-02-06T12:50:19.615Z,1.05
2023-02-06T12:53:10.829Z,0.97
2023-02-06T12:56:20.791Z,0.99
2023-02-06T12:59:06.888Z,0.86
2023-02-06T13:02:26.282Z,0.97
2023-02-06T13:04:55.217Z,0.78
2023-02-06T13:07:25.982Z,0.76
2023-02-06T13:10:01.535Z,0.72
2023-02-06T13:12:32.696Z,0.68
2023-02-06T13:15:21.444Z,0.66
2023-02-06T13:17:50.955Z,0.62
2023-02-06T13:20:21.386Z,0.63
2023-02-06T13:22:52.097Z,0.62
2023-02-06T13:25:25.617Z,0.63
2023-02-06T13:27:55.045Z,0.55
2023-02-06T13:30:34.465Z,0.60
2023-02-06T13:33:17.196Z,0.61
2023-02-06T13:36:10.049Z,0.60
2023-02-06T13:38:40.947Z,0.45
2023-02-06T13:41:18.720Z,0.45
2023-02-06T13:44:02.084Z,0.38
2023-02-06T13:46:48.057Z,0.51
2023-02-06T13:49:53.431Z,0.53
2023-02-06T13:52:48.134Z,0.43
2023-02-06T13:55:32.626Z,0.41
2023-02-06T13:58:24.869Z,0.45
2023-02-06T14:00:55.229Z,0.34
2023-02-06T14:03:29.926Z,0.33
2023-02-06T14:06:19.287Z,0.33
2023-02-06T14:08:47.965Z,0.31
2023-02-06T14:11:33.900Z,0.41
2023-02-06T14:14:28.750Z,0.34
2023-02-06T14:17:22.923Z,0.35
2023-02-06T14:20:18.238Z,0.38
2023-02-06T14:23:21.298Z,0.35
2023-02-06T14:26:01.467Z,0.36
2023-02-06T14:29:04.088Z,0.39
2023-02-06T14:31:40.793Z,0.50
2023-02-06T14:34:23.488Z,0.42
2023-02-06T14:37:20.946Z,0.40
2023-02-06T14:39:54.607Z,0.39
2023-02-06T14:42:32.086Z,0.33
2023-02-06T14:45:07.957Z,0.27
2023-02-06T14:47:42.702Z,0.31
2023-02-06T14:50:21.499Z,0.32
2023-02-06T14:52:58.642Z,0.41
2023-02-06T14:55:46.875Z,0.47
2023-02-06T14:58:28.139Z,0.38
2023-02-06T15:01:11.614Z,0.31
2023-02-06T15:03:40.491Z,0.29
2023-02-06T15:06:11.581Z,0.26
2023-02-06T15:08:47.159Z,0.20
2023-02-06T15:11:26.144Z,0.37
2023-02-06T15:13:56.575Z,0.20
2023-02-06T15:16:24.509Z,0.20
2023-02-06T15:19:28.381Z,0.32
2023-02-06T15:22:05.465Z,0.23
2023-02-06T15:24:56.626Z,0.32
2023-02-06T15:27:35.032Z,0.16
2023-02-06T15:30:15.685Z,0.14
2023-02-06T15:32:50.308Z,0.13
2023-02-06T15:35:45.041Z,0.09
2023-02-06T15:38:15.853Z,-0.07
2023-02-06T15:40:49.623Z,-0.19
2023-02-06T15:43:26.250Z,-0.20
2023-02-06T15:45:58.006Z,-0.14
2023-02-06T15:48:34.179Z,-0.09
2023-02-06T15:51:26.150Z,0.01
2023-02-06T15:54:18.267Z,-0.01
2023-02-06T15:56:55.062Z,-0.05
2023-02-06T15:59:25.778Z,-0.17
2023-02-06T16:01:56.562Z,-0.19
2023-02-06T16:04:32.655Z,-0.20
2023-02-06T16:07:07.192Z,-0.15
2023-02-06T16:09:57.242Z,-0.07
2023-02-06T16:12:25.163Z,-0.20
2023-02-06T16:14:57.991Z,-0.13
2023-02-06T16:17:36.873Z,-0.16
2023-02-06T16:20:46.827Z,-0.07
2023-02-06T16:23:20.396Z,-0.15
2023-02-06T16:26:00.212Z,-0.21
2023-02-06T16:28:29.174Z,-0.25
2023-02-06T16:31:03.463Z,-0.33
2023-02-06T16:33:41.128Z,-0.38
2023-02-06T16:36:14.276Z,-0.54
2023-02-06T16:38:48.265Z,-0.60
2023-02-06T16:41:26.172Z,-0.54
2023-02-06T16:43:54.880Z,-0.64
2023-02-06T16:46:22.501Z,-0.75
2023-02-06T16:48:50.341Z,-0.78
2023-02-06T16:51:20.743Z,-0.76
2023-02-06T16:53:49.427Z,-0.90
2023-02-06T16:56:18.305Z,-0.92
2023-02-06T16:58:46.320Z,-0.97
2023-02-06T17:01:25.889Z,-0.92
2023-02-06T17:03:54.127Z,-1.01
2023-02-06T17:06:32.633Z,-0.94
2023-02-06T17:09:04.818Z,-1.04
2023-02-06T17:11:32.878Z,-1.05
2023-02-06T17:14:00.682Z,-1.11
2023-02-06T17:16:31.329Z,-1.13
2023-02-06T17:18:58.983Z,-1.18
2023-02-06T17:21:28.644Z,-1.21
2023-02-06T17:23:56.269Z,-1.19
2023-02-06T17:26:24.062Z,-1.24
2023-02-06T17:28:52.169Z,-1.28
2023-02-06T17:31:19.878Z,-1.33
2023-02-06T17:33:47.887Z,-1.31
2023-02-06T17:36:29.574Z,-1.23
2023-02-06T17:39:01.766Z,-1.30
2023-02-06T17:41:31.056Z,-1.39
2023-02-06T17:43:58.737Z,-1.38
2023-02-06T17:46:26.290Z,-1.40
2023-02-06T17:49:04.032Z,-1.41
2023-02-06T17:51:32.409Z,-1.40
2023-02-06T17:54:25.839Z,-1.41
2023-02-06T17:57:06.958Z,-1.40
2023-02-06T17:59:35.606Z,-1.44
2023-02-06T18:02:03.346Z,-1.42
2023-02-06T18:04:31.024Z,-1.30
2023-02-06T18:06:58.664Z,-1.43
2023-02-06T18:09:27.620Z,-1.46
2023-02-06T18:11:55.285Z,-1.48
2023-02-06T18:14:22.804Z,-1.51
2023-02-06T18:16:50.449Z,-1.56
2023-02-06T18:19:24.140Z,-1.56
2023-02-06T18:21:52.220Z,-1.60
2023-02-06T18:24:19.777Z,-1.62
2023-02-06T18:26:47.548Z,-1.65
2023-02-06T18:29:15.148Z,-1.65
2023-02-06T18:31:42.733Z,-1.66
2023-02-06T18:34:11.355Z,-1.49
2023-02-06T18:36:39.319Z,-1.46
2023-02-06T18:39:07.284Z,-1.48
2023-02-06T18:41:53.180Z,-1.54
2023-02-06T18:44:20.988Z,-1.57
2023-02-06T18:46:48.645Z,-1.58
2023-02-06T18:49:16.602Z,-1.50
2023-02-06T18:51:47.162Z,-1.64
2023-02-06T18:54:14.778Z,-1.74
2023-02-06T18:56:42.441Z,-1.75
2023-02-06T18:59:10.215Z,-1.73
2023-02-06T19:01:37.696Z,-1.74
2023-02-06T19:04:05.381Z,-1.72
2023-02-06T19:06:35.909Z,-1.72
2023-02-06T19:09:07.371Z,-1.76
2023-02-06T19:11:38.654Z,-1.75
2023-02-06T19:14:07.980Z,-1.77
2023-02-06T19:16:38.716Z,-1.80
2023-02-06T19:19:09.561Z,-1.79
2023-02-06T19:21:37.522Z,-1.82
2023-02-06T19:24:06.290Z,-1.79
2023-02-06T19:26:34.433Z,-1.79
2023-02-06T19:29:02.134Z,-1.80
2023-02-06T19:31:29.704Z,-1.83
2023-02-06T19:34:00.658Z,-1.80
2023-02-06T19:36:30.513Z,-1.91
2023-02-06T19:39:01.049Z,-1.78
2023-02-06T19:41:31.580Z,-1.79
2023-02-06T19:44:03.565Z,-1.83
2023-02-06T19:46:31.272Z,-1.84
2023-02-06T19:48:58.888Z,-1.92
2023-02-06T19:51:30.644Z,-1.91
2023-02-06T19:53:59.580Z,-1.91
2023-02-06T19:56:34.899Z,-1.88
2023-02-06T19:59:10.214Z,-1.81
2023-02-06T20:01:37.781Z,-1.88
2023-02-06T20:04:18.894Z,-1.90
2023-02-06T20:06:47.730Z,-1.87
2023-02-06T20:09:16.101Z,-1.85
2023-02-06T20:11:43.671Z,-1.90
2023-02-06T20:14:12.609Z,-1.80
2023-02-06T20:16:41.886Z,-1.83
2023-02-06T20:19:13.551Z,-1.88
2023-02-06T20:21:43.676Z,-1.82
2023-02-06T20:24:22.339Z,-1.83
2023-02-06T20:26:55.641Z,-1.84
2023-02-06T20:29:26.822Z,-1.83
2023-02-06T20:31:55.243Z,-1.84
2023-02-06T20:34:23.696Z,-1.92
2023-02-06T20:36:52.011Z,-1.88
2023-02-06T20:39:20.351Z,-1.91
2023-02-06T20:41:49.841Z,-1.91
2023-02-06T20:44:18.406Z,-1.87
2023-02-06T20:46:47.000Z,-1.85
2023-02-06T20:49:21.159Z,-1.86
2023-02-06T20:51:49.769Z,-1.91
2023-02-06T20:54:18.730Z,-1.92
2023-02-06T20:56:46.595Z,-1.92
2023-02-06T20:59:16.617Z,-1.88
2023-02-06T21:01:44.779Z,-1.92
2023-02-06T21:04:14.878Z,-1.92
2023-02-06T21:06:43.399Z,-1.99
2023-02-06T21:09:11.704Z,-1.95
2023-02-06T21:11:46.111Z,-1.92
2023-02-06T21:14:14.721Z,-2.00
2023-02-06T21:16:44.046Z,-2.03
2023-02-06T21:19:14.668Z,-2.05
2023-02-06T21:21:45.887Z,-2.01
2023-02-06T21:24:14.412Z,-2.03
2023-02-06T21:26:42.183Z,-2.02
2023-02-06T21:29:11.046Z,-1.99
2023-02-06T21:31:39.142Z,-2.03
2023-02-06T21:34:10.033Z,-1.96
2023-02-06T21:36:39.554Z,-2.00
2023-02-06T21:39:07.871Z,-2.02
2023-02-06T21:41:37.107Z,-2.03
2023-02-06T21:44:05.072Z,-2.02
2023-02-06T21:46:33.690Z,-2.08
2023-02-06T21:49:01.462Z,-2.04
2023-02-06T21:51:29.220Z,-2.07
2023-02-06T21:53:57.282Z,-2.07
2023-02-06T21:56:29.220Z,-2.13
2023-02-06T21:58:57.919Z,-2.09
2023-02-06T22:01:30.870Z,-2.06
2023-02-06T22:03:58.614Z,-2.13
2023-02-06T22:06:27.394Z,-2.11
2023-02-06T22:08:56.869Z,-2.03
2023-02-06T22:11:28.317Z,-2.07
2023-02-06T22:14:01.218Z,-2.20
2023-02-06T22:16:29.581Z,-2.12
2023-02-06T22:18:57.757Z,-2.12
2023-02-06T22:21:27.296Z,-2.09
2023-02-06T22:23:58.573Z,-2.10
2023-02-06T22:26:27.456Z,-2.08
2023-02-06T22:28:55.181Z,-2.08
2023-02-06T22:31:25.496Z,-2.04
2023-02-06T22:33:53.449Z,-2.07
2023-02-06T22:36:24.583Z,-2.04
2023-02-06T22:39:06.764Z,-2.01
2023-02-06T22:41:35.955Z,-2.07
2023-02-06T22:44:03.600Z,-2.09
2023-02-06T22:46:34.869Z,-2.06
2023-02-06T22:49:02.716Z,-2.09
2023-02-06T22:51:30.614Z,-2.07
2023-02-06T22:53:58.186Z,-2.13
2023-02-06T22:56:37.580Z,-2.10
2023-02-06T22:59:10.762Z,-2.05
2023-02-06T23:01:45.401Z,-2.06
2023-02-06T23:04:16.051Z,-2.12
2023-02-06T23:06:44.060Z,-2.12
2023-02-06T23:09:24.606Z,-2.15
2023-02-06T23:11:52.964Z,-2.12
2023-02-06T23:14:21.210Z,-2.16
2023-02-06T23:16:49.101Z,-2.19
2023-02-06T23:19:17.744Z,-2.20
2023-02-06T23:21:47.932Z,-2.20
2023-02-06T23:24:16.475Z,-2.24
2023-02-06T23:26:46.226Z,-2.26
2023-02-06T23:29:17.629Z,-2.29
2023-02-06T23:31:47.276Z,-2.28
2023-02-06T23:34:15.906Z,-2.26
2023-02-06T23:36:45.591Z,-2.16
2023-02-06T23:39:13.474Z,-2.28
2023-02-06T23:41:41.148Z,-2.33
2023-02-06T23:44:10.647Z,-2.33
2023-02-06T23:46:39.977Z,-2.28
2023-02-06T23:49:08.568Z,-2.31
2023-02-06T23:51:38.252Z,-2.31
2023-02-06T23:54:07.788Z,-2.30
2023-02-06T23:56:35.845Z,-2.35
2023-02-06T23:59:05.488Z,-2.34
